Time;durP1;ratioP1;P1;durP2;ratioP2;P2;SDS_P1;SDS_P2;PMS_P1;PMS_P2;Temp;Humidity;BMP_temperature;BMP_pressure;BME280_temperature;BME280_humidity;BME280_pressure;Samples;Min_cycle;Max_cycle;Signal;HPM_P1;HPM_P2
2021/07/10 00:02:07;;;;;;;46.55;18.80;;;;;;;;;;5016233;28;20049;-61
2021/07/10 00:04:35;;;;;;;47.33;18.23;;;;;;;;;;5033292;28;20067;-62
2021/07/10 00:07:04;;;;;;;54.20;20.02;;;;;;;;;;5032448;28;20133;-62
2021/07/10 00:09:32;;;;;;;49.38;21.63;;;;;;;;;;5031652;28;20029;-62
2021/07/10 00:12:00;;;;;;;49.55;19.90;;;;;;;;;;5013900;28;20033;-61
2021/07/10 00:14:28;;;;;;;50.67;20.95;;;;;;;;;;5029264;28;20093;-62
2021/07/10 00:16:57;;;;;;;53.28;20.98;;;;;;;;;;5015140;28;20073;-62
2021/07/10 00:19:28;;;;;;;59.10;20.90;;;;;;;;;;5017791;28;20039;-60
2021/07/10 00:21:53;;;;;;;57.42;21.40;;;;;;;;;;5030303;28;20154;-61
2021/07/10 00:24:19;;;;;;;54.72;21.02;;;;;;;;;;5033135;28;20434;-62
2021/07/10 00:26:45;;;;;;;57.90;21.70;;;;;;;;;;5031969;28;20497;-62
2021/07/10 00:29:11;;;;;;;56.38;21.02;;;;;;;;;;4981273;28;20037;-61
2021/07/10 00:31:36;;;;;;;56.95;21.88;;;;;;;;;;5033276;28;21905;-61
2021/07/10 00:34:02;;;;;;;55.85;23.38;;;;;;;;;;4998700;28;20128;-61
2021/07/10 00:36:30;;;;;;;61.22;23.00;;;;;;;;;;5034538;28;20488;-61
2021/07/10 00:38:58;;;;;;;61.30;25.10;;;;;;;;;;5032537;28;21929;-61
2021/07/10 00:41:28;;;;;;;54.80;21.33;;;;;;;;;;5033334;28;20117;-60
2021/07/10 00:43:59;;;;;;;57.05;21.90;;;;;;;;;;5011950;28;20036;-61
2021/07/10 00:46:29;;;;;;;58.17;21.63;;;;;;;;;;5031280;28;20127;-61
2021/07/10 00:48:59;;;;;;;56.53;22.33;;;;;;;;;;5032990;28;20074;-60
2021/07/10 00:51:30;;;;;;;55.45;21.67;;;;;;;;;;5031339;28;20146;-62
2021/07/10 00:54:02;;;;;;;63.08;22.13;;;;;;;;;;5030731;28;20922;-61
2021/07/10 00:56:30;;;;;;;49.67;20.83;;;;;;;;;;5014898;28;20029;-61
2021/07/10 00:58:58;;;;;;;48.65;21.02;;;;;;;;;;5029950;28;20024;-61
2021/07/10 01:01:26;;;;;;;47.30;19.20;;;;;;;;;;5018917;28;20037;-61
2021/07/10 01:03:54;;;;;;;46.05;20.35;;;;;;;;;;5018264;28;20025;-62
2021/07/10 01:06:22;;;;;;;43.47;19.23;;;;;;;;;;5036579;28;20032;-60
2021/07/10 01:08:48;;;;;;;45.38;20.55;;;;;;;;;;5015388;28;20037;-62
2021/07/10 01:11:14;;;;;;;51.38;21.80;;;;;;;;;;5018211;28;20032;-61
2021/07/10 01:13:40;;;;;;;47.05;19.27;;;;;;;;;;5017446;28;20029;-61
2021/07/10 01:16:05;;;;;;;46.05;19.10;;;;;;;;;;5035827;28;20040;-61
2021/07/10 01:18:31;;;;;;;47.20;19.85;;;;;;;;;;5032344;28;20033;-61
2021/07/10 01:20:56;;;;;;;47.20;19.25;;;;;;;;;;5000222;28;20159;-62
2021/07/10 01:23:23;;;;;;;48.63;19.80;;;;;;;;;;5017567;28;20073;-62
2021/07/10 01:25:51;;;;;;;50.92;21.23;;;;;;;;;;5036083;28;20249;-61
2021/07/10 01:28:19;;;;;;;54.22;20.10;;;;;;;;;;5034639;28;20486;-61
2021/07/10 01:30:50;;;;;;;48.13;20.90;;;;;;;;;;5037240;28;20032;-61
2021/07/10 01:33:16;;;;;;;48.42;19.77;;;;;;;;;;5014766;28;20084;-61
2021/07/10 01:35:44;;;;;;;48.85;20.25;;;;;;;;;;5021510;28;20087;-62
2021/07/10 01:38:11;;;;;;;48.38;20.60;;;;;;;;;;5016513;28;20033;-63
2021/07/10 01:40:39;;;;;;;46.63;19.25;;;;;;;;;;5033927;28;20075;-68
2021/07/10 01:43:07;;;;;;;56.97;21.60;;;;;;;;;;5014398;28;20440;-62
2021/07/10 01:45:34;;;;;;;54.28;20.83;;;;;;;;;;5020518;28;20119;-62
2021/07/10 01:48:03;;;;;;;55.10;20.38;;;;;;;;;;5015258;28;20036;-63
2021/07/10 01:50:31;;;;;;;59.10;21.95;;;;;;;;;;5032762;28;20475;-61
2021/07/10 01:52:56;;;;;;;56.03;21.05;;;;;;;;;;5033144;28;20115;-61
2021/07/10 01:55:22;;;;;;;54.38;21.02;;;;;;;;;;5034504;28;20318;-61
2021/07/10 01:57:48;;;;;;;56.55;23.50;;;;;;;;;;5032846;28;20133;-61
2021/07/10 02:00:18;;;;;;;62.35;21.27;;;;;;;;;;5032146;28;20033;-62
2021/07/10 02:02:48;;;;;;;54.53;20.50;;;;;;;;;;5032398;28;20137;-62
2021/07/10 02:05:22;;;;;;;51.03;20.95;;;;;;;;;;5028230;28;20020;-61
2021/07/10 02:07:49;;;;;;;54.65;19.90;;;;;;;;;;5034403;28;20029;-61
2021/07/10 02:10:14;;;;;;;58.95;21.08;;;;;;;;;;4999825;28;20595;-61
2021/07/10 02:12:43;;;;;;;49.17;21.58;;;;;;;;;;5030278;28;20037;-60
2021/07/10 02:15:14;;;;;;;58.85;21.60;;;;;;;;;;5034755;28;21984;-61
2021/07/10 02:17:42;;;;;;;57.03;22.20;;;;;;;;;;5034645;28;20511;-61
2021/07/10 02:20:11;;;;;;;58.83;21.83;;;;;;;;;;5003567;28;20036;-62
2021/07/10 02:22:36;;;;;;;60.60;21.95;;;;;;;;;;5014763;28;20052;-61
2021/07/10 02:25:05;;;;;;;51.10;20.67;;;;;;;;;;5014800;28;20086;-61
2021/07/10 02:27:31;;;;;;;50.05;19.85;;;;;;;;;;5014512;28;20217;-61
2021/07/10 02:29:58;;;;;;;66.13;22.35;;;;;;;;;;5015823;28;20036;-61
2021/07/10 02:32:26;;;;;;;60.33;23.00;;;;;;;;;;5016499;28;21047;-61
2021/07/10 02:34:52;;;;;;;57.90;20.70;;;;;;;;;;5034119;28;20041;-61
2021/07/10 02:37:18;;;;;;;57.03;21.50;;;;;;;;;;5035041;28;20127;-62
2021/07/10 02:39:45;;;;;;;55.45;22.63;;;;;;;;;;5016276;28;20063;-60
2021/07/10 02:42:11;;;;;;;59.40;23.85;;;;;;;;;;5035037;28;20711;-61
2021/07/10 02:44:38;;;;;;;55.33;21.98;;;;;;;;;;5016274;28;20466;-61
2021/07/10 02:47:06;;;;;;;50.72;21.00;;;;;;;;;;5016449;28;20048;-62
2021/07/10 02:49:32;;;;;;;52.10;20.95;;;;;;;;;;5015584;28;20340;-61
2021/07/10 02:51:57;;;;;;;64.00;22.88;;;;;;;;;;5032791;28;20056;-61
2021/07/10 02:54:23;;;;;;;56.78;21.95;;;;;;;;;;5028617;28;20108;-60
2021/07/10 02:56:51;;;;;;;50.10;20.27;;;;;;;;;;4997413;28;20025;-60
2021/07/10 02:59:19;;;;;;;59.85;21.30;;;;;;;;;;4996310;28;20037;-61
2021/07/10 03:01:49;;;;;;;47.38;20.83;;;;;;;;;;5015879;28;20113;-61
2021/07/10 03:04:14;;;;;;;52.75;21.38;;;;;;;;;;5002061;28;20044;-61
2021/07/10 03:06:40;;;;;;;49.30;21.27;;;;;;;;;;5014466;28;20071;-62
2021/07/10 03:09:07;;;;;;;60.00;21.60;;;;;;;;;;5013504;28;20036;-61
2021/07/10 03:11:33;;;;;;;50.90;21.25;;;;;;;;;;5032910;28;20070;-61
2021/07/10 03:13:59;;;;;;;49.28;20.10;;;;;;;;;;5031968;28;20024;-61
2021/07/10 03:16:27;;;;;;;49.58;21.15;;;;;;;;;;5014435;28;21939;-61
2021/07/10 03:18:52;;;;;;;51.03;20.15;;;;;;;;;;5014222;28;20032;-63
2021/07/10 03:21:17;;;;;;;44.85;19.48;;;;;;;;;;4982653;28;20113;-62
2021/07/10 03:23:45;;;;;;;39.25;19.52;;;;;;;;;;5016721;28;20037;-61
2021/07/10 03:26:10;;;;;;;56.70;21.80;;;;;;;;;;5015658;28;22108;-59
2021/07/10 03:28:40;;;;;;;50.97;20.80;;;;;;;;;;5013042;28;20964;-61
2021/07/10 03:31:06;;;;;;;47.25;19.02;;;;;;;;;;5015152;28;20639;-61
2021/07/10 03:33:36;;;;;;;41.67;16.63;;;;;;;;;;5013950;28;20141;-59
2021/07/10 03:36:02;;;;;;;41.05;16.92;;;;;;;;;;5033730;28;20238;-61
2021/07/10 03:38:30;;;;;;;39.85;15.68;;;;;;;;;;5014242;28;20086;-60
2021/07/10 03:41:00;;;;;;;43.00;17.58;;;;;;;;;;5031267;28;20024;-60
2021/07/10 03:43:28;;;;;;;46.45;19.25;;;;;;;;;;5002180;28;20032;-61
2021/07/10 03:45:56;;;;;;;46.58;21.15;;;;;;;;;;4999244;28;20039;-59
2021/07/10 03:48:24;;;;;;;51.70;20.73;;;;;;;;;;5015420;28;20041;-60
2021/07/10 03:50:50;;;;;;;52.28;20.73;;;;;;;;;;5033980;28;20068;-60
2021/07/10 03:53:16;;;;;;;52.25;20.38;;;;;;;;;;5012458;28;20040;-62
2021/07/10 03:55:47;;;;;;;48.08;18.67;;;;;;;;;;5031473;28;20128;-61
2021/07/10 03:58:13;;;;;;;45.53;18.67;;;;;;;;;;4996850;28;20025;-60
2021/07/10 04:00:43;;;;;;;49.13;19.70;;;;;;;;;;5016616;28;20052;-60
2021/07/10 04:03:11;;;;;;;49.92;20.17;;;;;;;;;;5015313;28;20029;-60
2021/07/10 04:05:39;;;;;;;49.65;20.17;;;;;;;;;;5034132;28;20116;-61
2021/07/10 04:08:09;;;;;;;53.53;22.30;;;;;;;;;;5015535;28;20044;-60
2021/07/10 04:10:34;;;;;;;53.70;21.98;;;;;;;;;;5015465;28;20035;-61
2021/07/10 04:13:01;;;;;;;52.45;21.95;;;;;;;;;;5015062;28;21030;-60
2021/07/10 04:15:28;;;;;;;52.08;20.75;;;;;;;;;;5014058;28;20029;-62
2021/07/10 04:17:56;;;;;;;54.35;23.17;;;;;;;;;;5002113;28;20700;-61
2021/07/10 04:20:28;;;;;;;49.22;19.98;;;;;;;;;;5032719;28;20029;-61
2021/07/10 04:23:05;;;;;;;57.22;22.65;;;;;;;;;;5000119;28;20486;-60
2021/07/10 04:25:33;;;;;;;48.63;21.58;;;;;;;;;;5032007;28;20103;-61
2021/07/10 04:28:04;;;;;;;42.05;19.73;;;;;;;;;;5031969;28;20468;-61
2021/07/10 04:30:32;;;;;;;39.83;18.20;;;;;;;;;;5031481;28;20029;-61
2021/07/10 04:32:57;;;;;;;38.97;18.35;;;;;;;;;;4988690;28;20020;-61
2021/07/10 04:35:25;;;;;;;43.33;18.80;;;;;;;;;;5017978;28;20059;-62
2021/07/10 04:37:55;;;;;;;37.90;17.55;;;;;;;;;;5000488;28;20029;-62
2021/07/10 04:40:21;;;;;;;36.45;16.40;;;;;;;;;;5017194;28;20037;-62
2021/07/10 04:42:51;;;;;;;37.30;16.48;;;;;;;;;;5036889;28;20029;-60
2021/07/10 04:45:19;;;;;;;34.25;15.38;;;;;;;;;;5018982;28;20029;-61
2021/07/10 04:47:46;;;;;;;29.73;15.30;;;;;;;;;;5001623;28;20083;-62
2021/07/10 04:50:21;;;;;;;32.97;15.98;;;;;;;;;;5018494;28;20043;-61
2021/07/10 04:52:47;;;;;;;34.70;16.02;;;;;;;;;;5036482;28;21960;-61
2021/07/10 04:55:15;;;;;;;29.85;14.50;;;;;;;;;;5033758;28;20116;-61
2021/07/10 04:57:44;;;;;;;33.47;14.85;;;;;;;;;;4989660;28;20025;-61
2021/07/10 05:00:12;;;;;;;24.30;13.93;;;;;;;;;;5034468;28;20047;-62
2021/07/10 05:02:37;;;;;;;32.10;15.00;;;;;;;;;;5017025;28;20114;-61
2021/07/10 05:05:06;;;;;;;26.75;14.05;;;;;;;;;;5035701;28;20033;-61
2021/07/10 05:07:31;;;;;;;33.92;16.13;;;;;;;;;;5018013;28;20060;-61
2021/07/10 05:09:57;;;;;;;31.27;16.08;;;;;;;;;;5017358;28;20136;-61
2021/07/10 05:12:27;;;;;;;29.70;14.90;;;;;;;;;;5018341;28;20060;-62
2021/07/10 05:14:55;;;;;;;28.08;15.05;;;;;;;;;;5017729;28;20033;-62
2021/07/10 05:17:26;;;;;;;28.98;15.73;;;;;;;;;;5015709;28;20067;-62
2021/07/10 05:19:54;;;;;;;31.17;16.23;;;;;;;;;;5001495;28;20124;-64
2021/07/10 05:22:20;;;;;;;27.67;15.70;;;;;;;;;;5016888;28;20036;-63
2021/07/10 05:24:50;;;;;;;28.88;14.45;;;;;;;;;;5034877;28;20059;-62
2021/07/10 05:27:15;;;;;;;28.13;15.43;;;;;;;;;;5016383;28;20296;-62
2021/07/10 05:29:41;;;;;;;27.17;15.07;;;;;;;;;;4998794;28;20520;-63
2021/07/10 05:32:09;;;;;;;29.88;15.75;;;;;;;;;;5037038;28;20122;-62
2021/07/10 05:34:34;;;;;;;24.35;14.50;;;;;;;;;;5029476;28;20142;-61
2021/07/10 05:37:02;;;;;;;29.17;14.85;;;;;;;;;;5017144;28;20037;-61
2021/07/10 05:39:28;;;;;;;27.40;14.15;;;;;;;;;;5017358;28;20072;-61
2021/07/10 05:41:56;;;;;;;28.95;14.93;;;;;;;;;;5020790;28;20496;-61
2021/07/10 05:44:24;;;;;;;30.92;14.52;;;;;;;;;;5001207;28;20037;-62
2021/07/10 05:46:55;;;;;;;28.13;14.90;;;;;;;;;;5031680;28;20028;-63
2021/07/10 05:49:21;;;;;;;26.45;13.68;;;;;;;;;;5033472;28;20523;-61
2021/07/10 05:51:49;;;;;;;23.92;13.60;;;;;;;;;;5001237;28;20081;-62
2021/07/10 05:54:14;;;;;;;23.17;12.93;;;;;;;;;;5012470;28;20036;-62
2021/07/10 05:56:43;;;;;;;22.10;12.50;;;;;;;;;;5031763;28;20706;-62
2021/07/10 05:59:08;;;;;;;19.60;11.98;;;;;;;;;;5014063;28;20039;-62
2021/07/10 06:01:36;;;;;;;19.17;11.52;;;;;;;;;;5018021;28;20089;-62
2021/07/10 06:04:04;;;;;;;15.07;8.98;;;;;;;;;;5015601;28;20131;-62
2021/07/10 06:06:32;;;;;;;17.67;10.50;;;;;;;;;;5001325;28;20116;-62
2021/07/10 06:09:00;;;;;;;19.02;11.55;;;;;;;;;;5035543;28;20046;-61
2021/07/10 06:11:28;;;;;;;15.77;10.23;;;;;;;;;;5015634;28;20024;-62
2021/07/10 06:13:56;;;;;;;13.77;8.55;;;;;;;;;;5016227;28;20143;-63
2021/07/10 06:16:23;;;;;;;13.38;8.02;;;;;;;;;;4999811;28;20098;-63
2021/07/10 06:18:49;;;;;;;9.38;6.30;;;;;;;;;;5003344;28;20041;-62
2021/07/10 06:21:15;;;;;;;12.18;8.20;;;;;;;;;;5036305;28;20025;-63
2021/07/10 06:23:43;;;;;;;12.50;6.97;;;;;;;;;;5017099;28;20028;-62
2021/07/10 06:26:11;;;;;;;11.40;6.88;;;;;;;;;;5034006;28;20032;-63
2021/07/10 06:28:37;;;;;;;13.45;8.23;;;;;;;;;;4999077;28;20047;-63
2021/07/10 06:31:07;;;;;;;14.27;8.57;;;;;;;;;;5004034;28;20987;-63
2021/07/10 06:33:37;;;;;;;10.55;6.70;;;;;;;;;;5033233;28;20044;-63
2021/07/10 06:36:05;;;;;;;12.82;8.13;;;;;;;;;;5002004;28;20038;-65
2021/07/10 06:38:35;;;;;;;14.18;8.32;;;;;;;;;;5014941;28;20051;-63
2021/07/10 06:41:06;;;;;;;11.07;8.15;;;;;;;;;;5016131;28;20037;-64
2021/07/10 06:43:31;;;;;;;11.32;7.05;;;;;;;;;;5032871;28;20124;-63
2021/07/10 06:45:59;;;;;;;9.57;6.75;;;;;;;;;;5031969;28;20428;-63
2021/07/10 06:48:24;;;;;;;9.95;6.07;;;;;;;;;;5012062;28;20809;-62
2021/07/10 06:50:52;;;;;;;11.02;6.70;;;;;;;;;;5015251;28;20025;-62
2021/07/10 06:53:24;;;;;;;7.43;5.40;;;;;;;;;;5033146;28;21273;-63
2021/07/10 06:55:54;;;;;;;8.25;5.00;;;;;;;;;;5014063;28;20056;-62
2021/07/10 06:58:20;;;;;;;7.57;4.45;;;;;;;;;;5028792;28;20138;-62
2021/07/10 07:00:49;;;;;;;8.15;5.00;;;;;;;;;;4997864;28;20025;-63
2021/07/10 07:03:19;;;;;;;5.63;3.65;;;;;;;;;;5014150;28;20028;-63
2021/07/10 07:05:45;;;;;;;5.78;4.72;;;;;;;;;;5016853;28;20495;-64
2021/07/10 07:08:13;;;;;;;4.32;3.28;;;;;;;;;;4984510;28;20053;-64
2021/07/10 07:10:43;;;;;;;5.13;2.90;;;;;;;;;;5014126;28;20037;-62
2021/07/10 07:13:13;;;;;;;4.55;3.47;;;;;;;;;;5015588;28;20070;-63
2021/07/10 07:15:43;;;;;;;4.68;4.00;;;;;;;;;;5032053;28;20412;-63
2021/07/10 07:18:09;;;;;;;5.78;3.83;;;;;;;;;;5001451;28;20028;-64
2021/07/10 07:20:37;;;;;;;4.53;3.45;;;;;;;;;;5033195;28;20017;-64
2021/07/10 07:23:05;;;;;;;5.90;3.30;;;;;;;;;;5032854;28;20124;-63
2021/07/10 07:25:35;;;;;;;5.10;3.50;;;;;;;;;;5015710;28;20033;-64
2021/07/10 07:28:01;;;;;;;6.85;3.72;;;;;;;;;;5033501;28;20437;-62
2021/07/10 07:30:34;;;;;;;5.20;3.63;;;;;;;;;;5034245;28;20139;-62
2021/07/10 07:33:04;;;;;;;4.30;3.42;;;;;;;;;;4999718;28;20034;-63
2021/07/10 07:35:35;;;;;;;5.28;2.83;;;;;;;;;;5015730;28;20061;-63
2021/07/10 07:38:06;;;;;;;8.45;3.38;;;;;;;;;;5013350;28;20037;-63
2021/07/10 07:40:31;;;;;;;4.82;3.72;;;;;;;;;;5015655;28;20123;-63
2021/07/10 07:42:59;;;;;;;6.28;4.57;;;;;;;;;;5013709;28;20160;-62
2021/07/10 07:45:25;;;;;;;5.93;3.75;;;;;;;;;;5013963;28;20387;-64
2021/07/10 07:47:50;;;;;;;4.50;3.50;;;;;;;;;;5033151;28;21176;-63
2021/07/10 07:50:19;;;;;;;13.68;3.90;;;;;;;;;;5031312;28;20128;-62
2021/07/10 07:52:48;;;;;;;8.02;4.68;;;;;;;;;;5019171;28;20025;-63
2021/07/10 07:55:13;;;;;;;4.53;3.70;;;;;;;;;;5029963;28;20041;-63
2021/07/10 07:57:41;;;;;;;5.82;3.75;;;;;;;;;;5030855;28;22114;-62
2021/07/10 08:00:19;;;;;;;4.22;3.05;;;;;;;;;;4999518;28;21994;-63
2021/07/10 08:02:47;;;;;;;5.63;3.47;;;;;;;;;;4998134;28;20029;-64
2021/07/10 08:05:14;;;;;;;4.50;3.22;;;;;;;;;;5033690;28;20028;-64
2021/07/10 08:07:39;;;;;;;6.50;3.13;;;;;;;;;;5032285;28;20044;-63
2021/07/10 08:10:07;;;;;;;4.70;3.13;;;;;;;;;;5015908;28;20632;-63
2021/07/10 08:12:35;;;;;;;7.18;2.83;;;;;;;;;;5036179;28;20082;-64
2021/07/10 08:15:01;;;;;;;5.22;3.25;;;;;;;;;;5016798;28;20032;-63
2021/07/10 08:17:29;;;;;;;5.68;3.50;;;;;;;;;;5020135;28;20025;-62
2021/07/10 08:19:56;;;;;;;6.05;3.35;;;;;;;;;;5036719;28;20025;-64
2021/07/10 08:22:24;;;;;;;9.65;4.10;;;;;;;;;;5005928;28;20052;-62
2021/07/10 08:24:53;;;;;;;5.47;3.67;;;;;;;;;;5037228;28;20033;-63
2021/07/10 08:27:21;;;;;;;7.18;3.33;;;;;;;;;;5018410;28;21451;-63
2021/07/10 08:29:49;;;;;;;5.13;3.42;;;;;;;;;;5017275;28;20041;-64
2021/07/10 08:32:15;;;;;;;9.00;3.28;;;;;;;;;;5018490;28;20024;-63
2021/07/10 08:34:43;;;;;;;5.50;2.80;;;;;;;;;;5036344;28;21133;-62
2021/07/10 08:37:11;;;;;;;3.28;2.67;;;;;;;;;;5018014;28;20112;-62
2021/07/10 08:39:40;;;;;;;3.47;2.75;;;;;;;;;;5018665;28;20040;-63
2021/07/10 08:42:08;;;;;;;4.57;2.90;;;;;;;;;;5019120;28;22103;-63
2021/07/10 08:44:37;;;;;;;2.97;2.13;;;;;;;;;;5035608;28;20984;-63
2021/07/10 08:47:11;;;;;;;2.90;2.38;;;;;;;;;;5035609;28;20094;-62
2021/07/10 08:49:39;;;;;;;3.50;2.20;;;;;;;;;;4996280;28;20079;-62
2021/07/10 08:52:07;;;;;;;3.10;2.28;;;;;;;;;;5002042;28;20025;-62
2021/07/10 08:54:38;;;;;;;5.65;2.63;;;;;;;;;;5035628;28;22037;-63
2021/07/10 08:57:07;;;;;;;4.22;2.45;;;;;;;;;;5017229;28;20037;-64
2021/07/10 08:59:35;;;;;;;3.42;2.95;;;;;;;;;;5016462;28;20044;-63
2021/07/10 09:02:03;;;;;;;2.88;1.73;;;;;;;;;;5035575;28;20029;-64
2021/07/10 09:04:39;;;;;;;1.92;1.83;;;;;;;;;;5017418;28;20463;-62
2021/07/10 09:07:07;;;;;;;2.83;2.10;;;;;;;;;;5036050;28;20021;-63
2021/07/10 09:09:46;;;;;;;2.65;1.80;;;;;;;;;;5017527;28;20119;-64
2021/07/10 09:12:13;;;;;;;1.85;1.73;;;;;;;;;;5035177;28;20024;-64
2021/07/10 09:14:40;;;;;;;2.17;1.50;;;;;;;;;;5016392;28;20025;-65
2021/07/10 09:17:18;;;;;;;6.22;1.85;;;;;;;;;;5036461;28;20032;-63
2021/07/10 09:19:44;;;;;;;2.15;1.73;;;;;;;;;;4995127;28;20029;-64
2021/07/10 09:22:10;;;;;;;5.22;2.13;;;;;;;;;;5017697;28;20135;-64
2021/07/10 09:24:36;;;;;;;3.15;2.00;;;;;;;;;;5035422;28;20029;-64
2021/07/10 09:27:06;;;;;;;2.17;1.60;;;;;;;;;;5035080;28;20119;-63
2021/07/10 09:29:36;;;;;;;2.83;2.05;;;;;;;;;;5035155;28;20078;-63
2021/07/10 09:32:02;;;;;;;3.03;1.80;;;;;;;;;;5017454;28;20033;-63
2021/07/10 09:34:33;;;;;;;1.60;1.50;;;;;;;;;;5034597;28;20032;-63
2021/07/10 09:36:58;;;;;;;3.58;1.60;;;;;;;;;;5036544;28;20049;-63
2021/07/10 09:39:26;;;;;;;2.45;1.85;;;;;;;;;;5033772;28;20105;-63
2021/07/10 09:41:53;;;;;;;2.20;1.90;;;;;;;;;;5022047;28;20029;-63
2021/07/10 09:44:21;;;;;;;2.70;1.80;;;;;;;;;;5016021;28;20059;-63
2021/07/10 09:46:49;;;;;;;1.85;1.67;;;;;;;;;;5036059;28;20463;-64
2021/07/10 09:49:18;;;;;;;2.50;2.15;;;;;;;;;;5034676;28;20041;-64
2021/07/10 09:51:46;;;;;;;2.83;2.10;;;;;;;;;;5032262;28;20032;-64
2021/07/10 09:54:15;;;;;;;2.28;1.80;;;;;;;;;;5018856;28;20043;-64
2021/07/10 09:57:01;;;;;;;2.38;1.75;;;;;;;;;;5035563;28;20033;-63
2021/07/10 09:59:30;;;;;;;2.92;2.10;;;;;;;;;;5016835;28;20465;-64
2021/07/10 10:02:00;;;;;;;2.72;2.00;;;;;;;;;;5015530;28;20161;-63
2021/07/10 10:04:33;;;;;;;2.60;1.70;;;;;;;;;;5034789;28;22082;-63
2021/07/10 10:06:59;;;;;;;2.15;1.92;;;;;;;;;;5034623;28;20867;-64
2021/07/10 10:09:28;;;;;;;2.67;2.00;;;;;;;;;;5034506;28;20192;-64
2021/07/10 10:11:59;;;;;;;3.20;2.50;;;;;;;;;;5016363;28;20029;-63
2021/07/10 10:14:29;;;;;;;3.75;2.05;;;;;;;;;;5034005;28;20043;-63
2021/07/10 10:16:55;;;;;;;3.65;2.30;;;;;;;;;;5016926;28;20132;-64
2021/07/10 10:19:22;;;;;;;3.78;2.40;;;;;;;;;;5032091;28;20253;-63
2021/07/10 10:21:51;;;;;;;3.78;2.10;;;;;;;;;;5006475;28;20020;-64
2021/07/10 10:24:24;;;;;;;3.10;2.00;;;;;;;;;;5015222;28;20071;-64
2021/07/10 10:26:57;;;;;;;3.90;1.92;;;;;;;;;;5034792;28;20021;-65
2021/07/10 10:29:30;;;;;;;3.22;1.88;;;;;;;;;;5016068;28;20633;-63
2021/07/10 10:31:58;;;;;;;2.85;2.05;;;;;;;;;;5034988;28;20037;-64
2021/07/10 10:34:27;;;;;;;5.38;2.05;;;;;;;;;;5016417;28;20037;-64
2021/07/10 10:36:53;;;;;;;2.45;1.95;;;;;;;;;;5019124;28;21687;-64
2021/07/10 10:39:20;;;;;;;5.22;2.53;;;;;;;;;;5033386;28;20041;-64
2021/07/10 10:41:47;;;;;;;2.33;1.80;;;;;;;;;;5034856;28;20057;-64
2021/07/10 10:44:16;;;;;;;3.03;2.60;;;;;;;;;;5032526;28;20040;-64
2021/07/10 10:46:52;;;;;;;5.93;2.33;;;;;;;;;;5034759;28;20450;-64
2021/07/10 10:49:41;;;;;;;3.17;2.22;;;;;;;;;;5002364;28;20120;-64
2021/07/10 10:52:32;;;;;;;3.25;2.20;;;;;;;;;;5034109;28;20206;-65
2021/07/10 10:55:10;;;;;;;2.25;2.08;;;;;;;;;;5003159;28;20037;-63
2021/07/10 10:57:37;;;;;;;2.75;2.25;;;;;;;;;;5014602;28;20036;-65
2021/07/10 11:00:05;;;;;;;3.38;2.33;;;;;;;;;;5019183;28;20071;-64
2021/07/10 11:02:32;;;;;;;3.08;1.80;;;;;;;;;;5014635;28;20040;-63
2021/07/10 11:04:57;;;;;;;2.30;2.10;;;;;;;;;;5015335;28;20078;-65
2021/07/10 11:07:26;;;;;;;4.10;2.33;;;;;;;;;;5015673;28;20037;-65
2021/07/10 11:10:10;;;;;;;4.22;2.13;;;;;;;;;;5016371;28;20025;-64
2021/07/10 11:12:59;;;;;;;2.10;1.90;;;;;;;;;;5002746;28;20028;-65
2021/07/10 11:15:24;;;;;;;4.15;2.40;;;;;;;;;;5013786;28;20889;-64
2021/07/10 11:17:58;;;;;;;3.10;2.20;;;;;;;;;;4999369;28;20025;-64
2021/07/10 11:20:43;;;;;;;3.90;2.35;;;;;;;;;;5015583;28;20032;-64
2021/07/10 11:23:30;;;;;;;3.15;2.45;;;;;;;;;;5019012;28;20030;-64
2021/07/10 11:25:58;;;;;;;2.47;1.83;;;;;;;;;;5015797;28;20837;-64
2021/07/10 11:28:31;;;;;;;2.42;2.15;;;;;;;;;;5031656;28;20051;-64
2021/07/10 11:31:01;;;;;;;2.92;2.38;;;;;;;;;;5025680;28;20044;-65
2021/07/10 11:33:53;;;;;;;3.40;2.40;;;;;;;;;;5032381;28;20052;-64
2021/07/10 11:36:31;;;;;;;4.50;2.13;;;;;;;;;;5013937;28;20040;-64
2021/07/10 11:38:59;;;;;;;2.50;2.00;;;;;;;;;;5032213;28;20079;-64
2021/07/10 11:41:36;;;;;;;2.88;1.98;;;;;;;;;;5017472;28;20025;-64
2021/07/10 11:44:13;;;;;;;5.80;3.25;;;;;;;;;;5031363;28;20176;-64
2021/07/10 11:46:59;;;;;;;5.70;3.10;;;;;;;;;;5033624;28;20081;-64
2021/07/10 11:49:38;;;;;;;4.10;3.10;;;;;;;;;;4995507;28;20032;-63
2021/07/10 11:52:05;;;;;;;3.88;3.00;;;;;;;;;;5030791;28;20128;-64
2021/07/10 11:54:31;;;;;;;3.92;2.97;;;;;;;;;;5031334;28;20033;-64
2021/07/10 11:56:57;;;;;;;3.30;2.75;;;;;;;;;;5033432;28;20087;-63
2021/07/10 11:59:28;;;;;;;4.13;2.85;;;;;;;;;;5011713;28;20659;-64
2021/07/10 12:02:12;;;;;;;4.40;2.65;;;;;;;;;;4999604;28;20075;-63
2021/07/10 12:05:01;;;;;;;3.65;2.63;;;;;;;;;;5011937;28;20127;-63
2021/07/10 12:07:31;;;;;;;3.30;2.72;;;;;;;;;;5014852;28;20547;-63
2021/07/10 12:10:03;;;;;;;3.30;2.30;;;;;;;;;;5015181;28;20029;-63
2021/07/10 12:12:29;;;;;;;3.10;2.40;;;;;;;;;;5000917;28;20036;-64
2021/07/10 12:14:56;;;;;;;3.28;2.55;;;;;;;;;;4979583;28;20056;-64
2021/07/10 12:17:22;;;;;;;2.75;2.30;;;;;;;;;;5032616;28;20029;-64
2021/07/10 12:19:48;;;;;;;4.13;2.47;;;;;;;;;;5014390;28;20049;-63
2021/07/10 12:22:14;;;;;;;3.47;2.30;;;;;;;;;;5015027;28;20145;-64
2021/07/10 12:24:50;;;;;;;2.42;2.10;;;;;;;;;;5002283;28;20041;-64
2021/07/10 12:27:16;;;;;;;2.88;2.13;;;;;;;;;;5030464;28;21989;-65
2021/07/10 12:29:51;;;;;;;5.43;1.95;;;;;;;;;;5030410;28;20047;-64
2021/07/10 12:32:17;;;;;;;5.53;2.33;;;;;;;;;;5031632;28;20033;-63
2021/07/10 12:34:57;;;;;;;2.03;1.83;;;;;;;;;;5013408;28;20809;-64
2021/07/10 12:37:27;;;;;;;2.92;2.50;;;;;;;;;;5014180;28;20033;-63
2021/07/10 12:40:03;;;;;;;3.22;1.75;;;;;;;;;;5010381;28;22136;-64
2021/07/10 12:42:31;;;;;;;2.65;1.92;;;;;;;;;;5031471;28;20036;-63
2021/07/10 12:44:59;;;;;;;2.08;1.80;;;;;;;;;;5030008;28;20033;-63
2021/07/10 12:47:28;;;;;;;4.47;2.22;;;;;;;;;;5031677;28;20047;-64
2021/07/10 12:50:00;;;;;;;4.45;2.28;;;;;;;;;;5013628;28;20029;-64
2021/07/10 12:52:31;;;;;;;6.53;2.33;;;;;;;;;;5013298;28;20021;-64
2021/07/10 12:55:22;;;;;;;4.20;2.50;;;;;;;;;;4998023;28;20071;-64
2021/07/10 12:57:51;;;;;;;3.33;2.33;;;;;;;;;;5035074;28;20152;-64
2021/07/10 13:00:18;;;;;;;3.78;2.38;;;;;;;;;;5018406;28;20093;-64
2021/07/10 13:02:45;;;;;;;5.75;2.35;;;;;;;;;;5032825;28;20024;-65
2021/07/10 13:05:27;;;;;;;2.90;1.95;;;;;;;;;;5033438;28;20029;-63
2021/07/10 13:08:07;;;;;;;4.20;2.28;;;;;;;;;;5021115;28;20033;-64
2021/07/10 13:10:36;;;;;;;3.00;1.95;;;;;;;;;;5035628;28;20052;-63
2021/07/10 13:13:14;;;;;;;5.25;2.20;;;;;;;;;;5017459;28;20032;-64
2021/07/10 13:15:46;;;;;;;5.20;2.65;;;;;;;;;;5017895;28;20128;-63
2021/07/10 13:18:17;;;;;;;3.05;2.28;;;;;;;;;;5034487;28;20033;-63
2021/07/10 13:20:46;;;;;;;2.78;2.40;;;;;;;;;;5021157;28;20036;-64
2021/07/10 13:23:25;;;;;;;3.30;2.15;;;;;;;;;;5017597;28;20029;-65
2021/07/10 13:25:51;;;;;;;3.53;2.17;;;;;;;;;;5034991;28;20029;-64
2021/07/10 13:28:25;;;;;;;4.50;2.15;;;;;;;;;;5034145;28;20131;-64
2021/07/10 13:30:52;;;;;;;3.33;2.13;;;;;;;;;;5018982;28;20085;-64
2021/07/10 13:33:33;;;;;;;2.22;1.92;;;;;;;;;;5000334;28;20021;-64
2021/07/10 13:36:24;;;;;;;2.83;2.25;;;;;;;;;;5013734;28;20151;-64
2021/07/10 13:38:58;;;;;;;2.40;1.95;;;;;;;;;;5007098;28;20057;-63
2021/07/10 13:41:25;;;;;;;2.17;1.98;;;;;;;;;;5013060;28;20045;-61
2021/07/10 13:44:06;;;;;;;5.28;1.98;;;;;;;;;;5013573;28;20072;-62
2021/07/10 13:46:40;;;;;;;2.53;2.17;;;;;;;;;;5013610;28;20033;-61
2021/07/10 13:49:20;;;;;;;2.20;2.00;;;;;;;;;;5014341;28;20123;-63
2021/07/10 13:51:47;;;;;;;2.67;1.85;;;;;;;;;;5015064;28;20037;-62
2021/07/10 13:54:29;;;;;;;2.33;2.05;;;;;;;;;;5012516;28;20033;-63
2021/07/10 13:57:17;;;;;;;3.13;2.28;;;;;;;;;;5016836;28;20064;-63
2021/07/10 13:59:51;;;;;;;3.60;2.50;;;;;;;;;;5014626;28;20029;-63
2021/07/10 14:02:17;;;;;;;4.13;2.60;;;;;;;;;;5001778;28;20087;-63
2021/07/10 14:04:55;;;;;;;5.78;2.65;;;;;;;;;;5011948;28;20033;-64
2021/07/10 14:07:26;;;;;;;5.43;2.80;;;;;;;;;;4996035;28;20021;-63
2021/07/10 14:09:56;;;;;;;3.97;2.65;;;;;;;;;;5012348;28;20044;-64
2021/07/10 14:12:23;;;;;;;5.13;3.30;;;;;;;;;;5016825;28;20072;-63
2021/07/10 14:14:49;;;;;;;5.93;3.00;;;;;;;;;;5014059;28;20025;-64
2021/07/10 14:17:16;;;;;;;3.45;2.42;;;;;;;;;;5014249;28;20037;-62
2021/07/10 14:19:42;;;;;;;5.15;2.75;;;;;;;;;;5014468;28;20852;-63
2021/07/10 14:22:08;;;;;;;3.50;2.83;;;;;;;;;;5013226;28;20036;-63
2021/07/10 14:24:33;;;;;;;5.10;3.00;;;;;;;;;;5014481;28;20038;-64
2021/07/10 14:26:59;;;;;;;5.03;2.70;;;;;;;;;;5013035;28;20083;-62
2021/07/10 14:29:27;;;;;;;4.22;2.30;;;;;;;;;;5012922;28;20050;-63
2021/07/10 14:31:58;;;;;;;3.88;2.58;;;;;;;;;;5029870;28;20032;-62
2021/07/10 14:34:23;;;;;;;4.82;3.05;;;;;;;;;;5015132;28;20041;-63
2021/07/10 14:36:49;;;;;;;3.70;2.85;;;;;;;;;;5013190;28;20080;-63
2021/07/10 14:39:17;;;;;;;5.53;2.85;;;;;;;;;;4996526;28;20045;-63
2021/07/10 14:41:42;;;;;;;1.90;1.77;;;;;;;;;;4995283;28;21894;-63
2021/07/10 14:44:08;;;;;;;3.50;1.92;;;;;;;;;;4995383;28;20025;-62